Αρχική σελίδα
METAR-TAF:

METAR-TAF

Αεροδρόμια :

Ίβο Τζίμα, Ιαπωνία

γεωγραφικό πλάτος: 24-47N, γεωγραφικό μήκος: 141-19E, υψόμετρο: 113 μ

Παρών καιρός

Η αναφορά έγινε 25 λεπτά πριν, στις 02:00 UTC
Άνεμος 12 kt από Ν
Θερμοκρασία 29°C
Υγρασία 74%
Πίεση 1014 hPa
Ορατότητα 10 χλμ και άνω
Λίγα νέφη σε ύψος 1500 πόδια
Διάσπαρτα νέφη σε ύψος 5000 πόδια
Αρκετά νέφη

METAR: RJAW 150200Z 19012KT 9999 FEW015 SCT050 BKN/// 29/24 Q1014 RMK 2CU015 3CU050 A2995 WIND BY EQPT/25

Χρόνος: 11:25 (02:25 UTC)


TAF: λείπει

Μετεωρολογικές αναφορές και προγνώσεις για περισσότερα από 4000 αεροδρόμια (δελτία METAR και TAF).

Οι διαθέσιμοι σταθμοί απεικονίζονται στο χάρτη με κίτρινες και κόκκινες κουκκίδες.

Μετακινήστε το ποντίκι πάνω από τις κουκκίδες για να δείτε το όνομα του σταθμού.

Στη συνέχεια, κάντε κλικ για να δείτε τις μετεωρολογικές αναφορές και τις προγνώσεις καιρού.

Για να αλλάξετε το χάρτη: κάντε κλικ στα πράσινα κουμπιά με τον μαύρο σταυρό για να ζουμάρετε, στο πράσινο κουμπί με την παύλα για να αφαιρέσετε το ζουμ ή στα πράσινα βέλη για να αντιπαραβάλλετε χάρτες.


METAR-TAF: